createdAt,value
2017-12-29T00:01:51.019Z,99887.53
2017-12-29T00:04:25.995Z,99892.36
2017-12-29T00:07:01.296Z,99889.09
2017-12-29T00:09:36.178Z,99899.84
2017-12-29T00:12:10.599Z,99892.75
2017-12-29T00:14:45.790Z,99901.95
2017-12-29T00:17:20.595Z,99885.53
2017-12-29T00:19:55.759Z,99897.61
2017-12-29T00:22:30.831Z,99908.04
2017-12-29T00:25:05.515Z,99904.61
2017-12-29T00:27:40.217Z,99900.95
2017-12-29T00:30:15.487Z,99903.77
2017-12-29T00:32:49.911Z,99911.14
2017-12-29T00:35:24.910Z,99906.38
2017-12-29T00:37:59.690Z,99915.91
2017-12-29T00:40:34.371Z,99927.20
2017-12-29T00:43:09.247Z,99933.27
2017-12-29T00:45:43.642Z,99931.42
2017-12-29T00:48:18.885Z,99930.98
2017-12-29T00:50:53.923Z,99935.92
2017-12-29T00:53:28.328Z,99935.47
2017-12-29T00:56:03.136Z,99931.48
2017-12-29T00:58:38.228Z,99935.20
2017-12-29T01:01:13.387Z,99934.16
2017-12-29T01:03:57.703Z,99926.44
2017-12-29T01:06:32.315Z,99931.55
2017-12-29T01:09:07.264Z,99932.21
2017-12-29T01:11:42.043Z,99942.63
2017-12-29T01:14:16.818Z,99940.91
2017-12-29T01:16:51.434Z,99938.53
2017-12-29T01:19:26.392Z,99947.95
2017-12-29T01:22:01.319Z,99949.66
2017-12-29T01:24:36.598Z,99944.62
2017-12-29T01:27:11.311Z,99944.91
2017-12-29T01:29:46.607Z,99954.98
2017-12-29T01:32:21.751Z,99950.72
2017-12-29T01:34:56.847Z,99956.64
2017-12-29T01:37:31.803Z,99957.59
2017-12-29T01:40:06.688Z,99963.56
2017-12-29T01:42:41.643Z,99971.55
2017-12-29T01:45:16.754Z,99977.59
2017-12-29T01:47:58.655Z,99977.70
2017-12-29T01:50:33.456Z,99977.58
2017-12-29T01:53:08.223Z,99976.88
2017-12-29T01:55:42.977Z,99976.86
2017-12-29T01:58:18.174Z,99977.70
2017-12-29T02:00:53.151Z,99975.93
2017-12-29T02:03:28.007Z,99981.47
2017-12-29T02:06:03.003Z,99977.20
2017-12-29T02:08:38.105Z,99985.13
2017-12-29T02:11:12.847Z,99977.00
2017-12-29T02:13:47.623Z,99980.31
2017-12-29T02:16:22.539Z,99980.37
2017-12-29T02:18:56.998Z,99972.79
2017-12-29T02:21:31.979Z,99979.09
2017-12-29T02:24:06.759Z,99969.95
2017-12-29T02:26:41.735Z,99974.23
2017-12-29T02:29:16.547Z,99975.39
2017-12-29T02:31:51.582Z,99972.01
2017-12-29T02:34:26.448Z,99978.66
2017-12-29T02:37:01.172Z,99969.96
2017-12-29T02:39:36.089Z,99972.27
2017-12-29T02:42:11.128Z,99980.94
2017-12-29T02:44:46.254Z,99980.48
2017-12-29T02:47:21.260Z,99975.39
2017-12-29T02:49:56.196Z,99979.66
2017-12-29T02:52:31.112Z,99982.04
2017-12-29T02:55:06.223Z,99974.83
2017-12-29T02:57:41.452Z,99979.99
2017-12-29T03:00:16.689Z,99982.59
2017-12-29T03:02:52.136Z,99991.91
2017-12-29T03:05:27.454Z,99986.64
2017-12-29T03:08:02.430Z,99983.04
2017-12-29T03:10:37.468Z,99987.31
2017-12-29T03:13:12.443Z,99992.73
2017-12-29T03:15:47.242Z,99986.41
2017-12-29T03:18:22.247Z,99995.08
2017-12-29T03:20:56.752Z,99985.75
2017-12-29T03:23:31.907Z,99998.77
2017-12-29T03:26:06.658Z,100015.35
2017-12-29T03:28:41.492Z,100003.39
2017-12-29T03:31:16.571Z,100006.16
2017-12-29T03:33:51.344Z,99996.34
2017-12-29T03:36:26.154Z,99993.07
2017-12-29T03:39:01.223Z,99984.75
2017-12-29T03:41:36.056Z,99996.39
2017-12-29T03:44:11.237Z,99979.99
2017-12-29T03:46:46.187Z,99990.81
2017-12-29T03:49:21.152Z,99989.12
2017-12-29T03:51:56.036Z,99990.58
2017-12-29T03:54:31.362Z,99996.34
2017-12-29T03:57:06.020Z,99996.41
2017-12-29T03:59:41.223Z,99996.41
2017-12-29T04:02:15.703Z,99994.02
2017-12-29T04:04:51.115Z,100001.31
2017-12-29T04:07:26.296Z,100004.44
2017-12-29T04:10:01.651Z,100005.75
2017-12-29T04:12:36.802Z,100011.23
2017-12-29T04:15:11.899Z,100020.10
2017-12-29T04:17:46.950Z,100017.27
2017-12-29T04:20:22.079Z,100020.64
2017-12-29T04:22:56.951Z,100013.44
2017-12-29T04:25:32.318Z,100014.53
2017-12-29T04:28:07.579Z,100014.34
2017-12-29T04:30:42.178Z,100008.42
2017-12-29T04:33:17.255Z,100010.41
2017-12-29T04:35:52.318Z,100014.66
2017-12-29T04:38:27.024Z,100015.14
2017-12-29T04:41:01.995Z,100015.94
2017-12-29T04:43:37.179Z,100015.89
2017-12-29T04:46:12.284Z,100016.92
2017-12-29T04:48:47.151Z,100014.88
2017-12-29T04:51:22.149Z,100023.13
2017-12-29T04:53:57.185Z,100031.02
2017-12-29T04:56:31.999Z,100030.53
2017-12-29T04:59:06.868Z,100026.59
2017-12-29T05:01:41.759Z,100024.77
2017-12-29T05:04:16.751Z,100022.66
2017-12-29T05:06:51.930Z,100020.11
2017-12-29T05:09:27.250Z,100020.14
2017-12-29T05:12:02.411Z,100019.94
2017-12-29T05:14:37.462Z,100031.32
2017-12-29T05:17:12.271Z,100042.39
2017-12-29T05:19:47.114Z,100034.52
2017-12-29T05:22:22.332Z,100042.14
2017-12-29T05:24:57.577Z,100039.41
2017-12-29T05:27:31.889Z,100033.42
2017-12-29T05:30:06.551Z,100046.61
2017-12-29T05:32:41.456Z,100036.05
2017-12-29T05:35:16.706Z,100036.00
2017-12-29T05:37:51.815Z,100042.69
2017-12-29T05:40:26.914Z,100039.23
2017-12-29T05:43:01.736Z,100048.50
2017-12-29T05:45:37.075Z,100049.94
2017-12-29T05:48:11.499Z,100045.99
2017-12-29T05:50:46.358Z,100048.75
2017-12-29T05:53:21.124Z,100047.97
2017-12-29T05:55:55.867Z,100046.39
2017-12-29T05:58:30.991Z,100044.92
2017-12-29T06:01:05.863Z,100046.69
2017-12-29T06:03:40.551Z,100052.45
2017-12-29T06:06:15.675Z,100055.95
2017-12-29T06:08:50.607Z,100056.64
2017-12-29T06:11:25.504Z,100061.80
2017-12-29T06:14:00.539Z,100069.12
2017-12-29T06:16:35.659Z,100081.58
2017-12-29T06:19:11.070Z,100074.64
2017-12-29T06:21:46.139Z,100079.86
2017-12-29T06:24:20.619Z,100074.35
2017-12-29T06:26:55.692Z,100080.34
2017-12-29T06:29:30.808Z,100088.31
2017-12-29T06:32:05.346Z,100094.81
2017-12-29T06:34:40.480Z,100090.42
2017-12-29T06:37:15.211Z,100097.16
2017-12-29T06:39:50.568Z,100099.42
2017-12-29T06:42:25.672Z,100093.12
2017-12-29T06:45:00.832Z,100096.62
2017-12-29T06:47:35.853Z,100102.02
2017-12-29T06:50:10.831Z,100098.33
2017-12-29T06:52:45.852Z,100108.31
2017-12-29T06:55:20.739Z,100117.55
2017-12-29T06:57:55.506Z,100126.94
2017-12-29T07:00:30.491Z,100126.20
2017-12-29T07:03:05.363Z,100129.98
2017-12-29T07:05:40.166Z,100130.42
2017-12-29T07:08:15.348Z,100124.72
2017-12-29T07:10:50.279Z,100130.97
2017-12-29T07:13:25.599Z,100134.81
2017-12-29T07:16:00.467Z,100126.94
2017-12-29T07:18:35.615Z,100133.88
2017-12-29T07:21:10.570Z,100140.52
2017-12-29T07:23:45.439Z,100136.03
2017-12-29T07:26:20.395Z,100142.63
2017-12-29T07:28:55.189Z,100136.03
2017-12-29T07:31:30.187Z,100144.05
2017-12-29T07:34:05.152Z,100139.32
2017-12-29T07:36:39.923Z,100138.99
2017-12-29T07:39:15.252Z,100139.23
2017-12-29T07:41:50.370Z,100136.84
2017-12-29T07:44:25.158Z,100135.66
2017-12-29T07:47:00.127Z,100126.97
2017-12-29T07:49:34.855Z,100131.63
2017-12-29T07:52:09.479Z,100134.44
2017-12-29T07:54:44.651Z,100135.51
2017-12-29T07:57:19.681Z,100137.86
2017-12-29T07:59:55.020Z,100131.38
2017-12-29T08:02:30.070Z,100136.44
2017-12-29T08:05:05.274Z,100142.25
2017-12-29T08:07:40.070Z,100141.10
2017-12-29T08:10:14.791Z,100140.66
2017-12-29T08:12:51.303Z,100137.42
2017-12-29T08:15:25.919Z,100146.63
2017-12-29T08:18:00.795Z,100151.20
2017-12-29T08:20:35.757Z,100156.70
2017-12-29T08:23:10.554Z,100153.91
2017-12-29T08:25:45.521Z,100147.22
2017-12-29T08:28:20.316Z,100153.37
2017-12-29T08:30:55.048Z,100149.19
2017-12-29T08:33:30.163Z,100158.39
2017-12-29T08:36:05.198Z,100149.14
2017-12-29T08:38:40.123Z,100148.12
2017-12-29T08:41:15.252Z,100151.27
2017-12-29T08:43:50.251Z,100153.63
2017-12-29T08:46:25.059Z,100142.91
2017-12-29T08:48:59.984Z,100138.72
2017-12-29T08:51:34.806Z,100134.30
2017-12-29T08:54:09.634Z,100134.10
2017-12-29T08:56:44.607Z,100127.89
2017-12-29T08:59:19.967Z,100129.16
2017-12-29T09:01:55.155Z,100126.55
2017-12-29T09:04:30.027Z,100113.30
2017-12-29T09:07:04.834Z,100115.39
2017-12-29T09:09:39.379Z,100110.59
2017-12-29T09:12:14.476Z,100117.66
2017-12-29T09:14:49.502Z,100107.53
2017-12-29T09:17:24.383Z,100107.30
2017-12-29T09:19:59.192Z,100102.17
2017-12-29T09:22:34.291Z,100109.08
2017-12-29T09:25:09.367Z,100106.38
2017-12-29T09:27:44.163Z,100101.01
2017-12-29T09:30:18.896Z,100113.94
2017-12-29T09:32:53.743Z,100112.91
2017-12-29T09:35:28.504Z,100114.87
2017-12-29T09:38:03.694Z,100114.87
2017-12-29T09:40:38.684Z,100105.53
2017-12-29T09:43:13.507Z,100102.22
2017-12-29T09:45:48.234Z,100099.61
2017-12-29T09:48:23.319Z,100091.37
2017-12-29T09:50:58.291Z,100087.28
2017-12-29T09:53:33.567Z,100086.67
2017-12-29T09:56:08.562Z,100087.98
2017-12-29T09:58:43.863Z,100078.67
2017-12-29T10:01:18.854Z,100077.39
2017-12-29T10:03:54.064Z,100071.34
2017-12-29T10:06:28.991Z,100065.59
2017-12-29T10:09:03.378Z,100072.34
2017-12-29T10:11:38.746Z,100066.70
2017-12-29T10:14:13.491Z,100056.56
2017-12-29T10:16:48.255Z,100055.81
2017-12-29T10:19:23.418Z,100047.09
2017-12-29T10:21:58.078Z,100044.80
2017-12-29T10:24:33.436Z,100047.97
2017-12-29T10:27:08.567Z,100043.98
2017-12-29T10:29:43.330Z,100040.25
2017-12-29T10:32:18.095Z,100036.53
2017-12-29T10:34:52.967Z,100039.25
2017-12-29T10:37:27.907Z,100034.14
2017-12-29T10:40:02.724Z,100032.25
2017-12-29T10:42:37.403Z,100023.33
2017-12-29T10:45:12.326Z,100027.70
2017-12-29T10:47:47.124Z,100021.50
2017-12-29T10:50:21.999Z,100014.77
2017-12-29T10:52:56.831Z,100015.58
2017-12-29T10:55:31.606Z,100012.02
2017-12-29T10:58:06.762Z,100011.39
2017-12-29T11:00:41.724Z,100012.05
2017-12-29T11:03:16.321Z,100004.89
2017-12-29T11:05:51.351Z,99999.36
2017-12-29T11:08:26.266Z,100000.09
2017-12-29T11:11:01.607Z,99999.61
2017-12-29T11:13:36.742Z,99991.94
2017-12-29T11:16:11.311Z,99990.08
2017-12-29T11:18:46.483Z,99988.30
2017-12-29T11:21:21.362Z,99986.72
2017-12-29T11:23:56.408Z,99978.27
2017-12-29T11:26:31.327Z,99982.39
2017-12-29T11:29:06.221Z,99983.47
2017-12-29T11:31:40.604Z,99974.84
2017-12-29T11:34:15.951Z,99979.39
2017-12-29T11:36:50.728Z,99977.34
2017-12-29T11:39:25.988Z,99977.59
2017-12-29T11:42:00.843Z,99967.57
2017-12-29T11:44:35.559Z,99960.06
2017-12-29T11:47:10.695Z,99961.16
2017-12-29T11:49:45.641Z,99948.71
2017-12-29T11:52:20.561Z,99955.33
2017-12-29T11:54:55.346Z,99944.21
2017-12-29T11:57:30.240Z,99951.72
2017-12-29T12:00:04.410Z,99942.39
2017-12-29T12:02:39.491Z,99946.80
2017-12-29T12:05:14.334Z,99950.06
2017-12-29T12:07:49.299Z,99944.34
2017-12-29T12:10:24.195Z,99924.09
2017-12-29T12:12:59.047Z,99925.03
2017-12-29T12:15:33.532Z,99923.38
2017-12-29T12:18:08.103Z,99914.45
2017-12-29T12:20:43.427Z,99907.48
2017-12-29T12:23:18.686Z,99907.38
2017-12-29T12:25:53.916Z,99898.67
2017-12-29T12:28:28.717Z,99888.63
2017-12-29T12:31:03.686Z,99884.78
2017-12-29T12:33:38.782Z,99881.50
2017-12-29T12:36:13.918Z,99870.82
2017-12-29T12:38:49.043Z,99861.66
2017-12-29T12:41:23.779Z,99860.52
2017-12-29T12:43:58.755Z,99847.75
2017-12-29T12:46:33.606Z,99845.20
2017-12-29T12:49:08.732Z,99844.94
2017-12-29T12:51:43.719Z,99843.98
2017-12-29T12:54:18.571Z,99846.27
2017-12-29T12:56:53.042Z,99839.13
2017-12-29T12:59:28.176Z,99830.03
2017-12-29T13:02:02.932Z,99824.23
2017-12-29T13:04:37.675Z,99826.46
2017-12-29T13:07:12.448Z,99823.42
2017-12-29T13:09:47.158Z,99824.72
2017-12-29T13:12:22.148Z,99823.17
2017-12-29T13:14:57.194Z,99818.87
2017-12-29T13:17:32.079Z,99808.56
2017-12-29T13:20:07.597Z,99822.55
2017-12-29T13:22:42.570Z,99823.92
2017-12-29T13:25:17.662Z,99814.86
2017-12-29T13:27:52.468Z,99813.53
2017-12-29T13:30:27.336Z,99816.55
2017-12-29T13:33:02.103Z,99807.16
2017-12-29T13:35:36.972Z,99808.87
2017-12-29T13:38:12.155Z,99817.33
2017-12-29T13:40:47.230Z,99796.06
2017-12-29T13:43:22.264Z,99792.58
2017-12-29T13:45:57.314Z,99792.06
2017-12-29T13:48:32.142Z,99776.66
2017-12-29T13:51:07.171Z,99767.91
2017-12-29T13:53:42.427Z,99764.08
2017-12-29T13:56:17.319Z,99763.50
2017-12-29T13:58:52.307Z,99760.20
2017-12-29T14:01:27.168Z,99760.27
2017-12-29T14:04:02.564Z,99749.66
2017-12-29T14:06:37.507Z,99749.17
2017-12-29T14:09:12.304Z,99737.92
2017-12-29T14:11:47.112Z,99745.73
2017-12-29T14:14:21.842Z,99732.72
2017-12-29T14:16:56.816Z,99727.39
2017-12-29T14:19:31.612Z,99731.20
2017-12-29T14:22:06.414Z,99715.07
2017-12-29T14:24:41.371Z,99708.17
2017-12-29T14:27:15.926Z,99700.73
2017-12-29T14:29:51.098Z,99699.48
2017-12-29T14:32:26.031Z,99701.05
2017-12-29T14:35:00.976Z,99689.31
2017-12-29T14:37:35.817Z,99690.50
2017-12-29T14:40:10.444Z,99691.52
2017-12-29T14:42:44.996Z,99678.91
2017-12-29T14:45:20.346Z,99678.19
2017-12-29T14:47:55.283Z,99668.38
2017-12-29T14:50:30.326Z,99667.41
2017-12-29T14:53:05.431Z,99653.45
2017-12-29T14:55:40.759Z,99639.70
2017-12-29T14:58:16.043Z,99638.86
2017-12-29T15:00:50.919Z,99639.93
2017-12-29T15:03:25.428Z,99631.56
2017-12-29T15:06:00.300Z,99623.95
2017-12-29T15:08:35.361Z,99623.97
2017-12-29T15:11:10.364Z,99607.27
2017-12-29T15:13:45.264Z,99594.27
2017-12-29T15:16:20.611Z,99603.30
2017-12-29T15:18:55.459Z,99587.67
2017-12-29T15:21:30.281Z,99584.31
2017-12-29T15:24:05.123Z,99575.68
2017-12-29T15:26:39.824Z,99575.30
2017-12-29T15:29:14.580Z,99562.31
2017-12-29T15:31:48.828Z,99557.56
2017-12-29T15:34:23.939Z,99554.00
2017-12-29T15:36:58.747Z,99562.95
2017-12-29T15:39:33.619Z,99551.42
2017-12-29T15:42:08.088Z,99536.31
2017-12-29T15:44:43.138Z,99548.82
2017-12-29T15:47:18.139Z,99548.62
2017-12-29T15:49:53.010Z,99528.80
2017-12-29T15:52:28.353Z,99530.09
2017-12-29T15:55:02.978Z,99541.96
2017-12-29T15:57:37.379Z,99522.89
2017-12-29T16:00:12.351Z,99519.70
2017-12-29T16:02:46.735Z,99520.22
2017-12-29T16:05:21.783Z,99514.27
2017-12-29T16:07:56.715Z,99504.38
2017-12-29T16:10:31.384Z,99505.07
2017-12-29T16:13:06.223Z,99492.86
2017-12-29T16:15:41.272Z,99485.42
2017-12-29T16:18:16.365Z,99486.20
2017-12-29T16:20:51.028Z,99477.38
2017-12-29T16:23:25.917Z,99479.20
2017-12-29T16:26:00.833Z,99471.86
2017-12-29T16:28:35.715Z,99463.56
2017-12-29T16:31:10.511Z,99477.13
2017-12-29T16:33:45.195Z,99474.92
2017-12-29T16:36:19.891Z,99473.07
2017-12-29T16:38:54.583Z,99474.14
2017-12-29T16:41:29.375Z,99475.98
2017-12-29T16:44:04.383Z,99468.64
2017-12-29T16:46:39.260Z,99456.61
2017-12-29T16:49:14.224Z,99454.70
2017-12-29T16:51:49.211Z,99459.13
2017-12-29T16:54:24.024Z,99462.31
2017-12-29T16:56:59.099Z,99454.33
2017-12-29T16:59:33.954Z,99441.58
2017-12-29T17:02:09.103Z,99442.09
2017-12-29T17:04:44.194Z,99439.98
2017-12-29T17:07:19.172Z,99432.52
2017-12-29T17:09:53.967Z,99431.45
2017-12-29T17:12:29.131Z,99429.86
2017-12-29T17:15:03.944Z,99428.52
2017-12-29T17:17:38.698Z,99433.08
2017-12-29T17:20:13.591Z,99432.48
2017-12-29T17:22:48.331Z,99434.56
2017-12-29T17:25:23.291Z,99428.80
2017-12-29T17:27:58.107Z,99430.75
2017-12-29T17:30:32.652Z,99429.63
2017-12-29T17:33:07.942Z,99421.91
2017-12-29T17:35:42.708Z,99421.69
2017-12-29T17:38:17.492Z,99414.37
2017-12-29T17:40:52.460Z,99410.17
2017-12-29T17:43:27.056Z,99425.84
2017-12-29T17:46:01.951Z,99406.71
2017-12-29T17:48:36.823Z,99410.34
2017-12-29T17:51:11.720Z,99408.86
2017-12-29T17:53:46.530Z,99404.03
2017-12-29T17:56:21.446Z,99399.18
2017-12-29T17:58:55.835Z,99403.30
2017-12-29T18:01:30.807Z,99397.61
2017-12-29T18:04:05.743Z,99391.89
2017-12-29T18:06:40.666Z,99388.02
2017-12-29T18:09:16.769Z,99392.14
2017-12-29T18:11:51.547Z,99387.75
2017-12-29T18:14:26.344Z,99382.05
2017-12-29T18:17:01.279Z,99381.28
2017-12-29T18:19:36.367Z,99379.90
2017-12-29T18:22:11.432Z,99376.46
2017-12-29T18:24:46.469Z,99378.03
2017-12-29T18:27:21.247Z,99367.93
2017-12-29T18:29:56.427Z,99374.02
2017-12-29T18:32:31.547Z,99375.61
2017-12-29T18:35:06.416Z,99365.87
2017-12-29T18:37:41.735Z,99366.09
2017-12-29T18:40:16.993Z,99365.82
2017-12-29T18:42:52.032Z,99358.86
2017-12-29T18:45:27.355Z,99368.75
2017-12-29T18:48:02.487Z,99369.06
2017-12-29T18:50:37.323Z,99365.41
2017-12-29T18:53:12.294Z,99364.88
2017-12-29T18:55:47.251Z,99375.41
2017-12-29T18:58:22.134Z,99370.83
2017-12-29T19:00:56.713Z,99370.04
2017-12-29T19:03:31.616Z,99362.54
2017-12-29T19:06:06.604Z,99368.50
2017-12-29T19:08:41.338Z,99370.18
2017-12-29T19:11:16.403Z,99354.95
2017-12-29T19:13:51.267Z,99382.67
2017-12-29T19:16:26.202Z,99385.24
2017-12-29T19:19:01.080Z,99380.50
2017-12-29T19:21:36.020Z,99384.45
2017-12-29T19:24:10.875Z,99383.62
2017-12-29T19:26:45.800Z,99382.75
2017-12-29T19:29:20.188Z,99386.52
2017-12-29T19:31:55.054Z,99394.53
2017-12-29T19:34:29.954Z,99393.09
2017-12-29T19:37:05.295Z,99388.27
2017-12-29T19:39:40.584Z,99394.42
2017-12-29T19:42:15.564Z,99396.89
2017-12-29T19:44:50.952Z,99388.13
2017-12-29T19:47:25.911Z,99392.93
2017-12-29T19:50:01.125Z,99388.84
2017-12-29T19:52:36.236Z,99390.56
2017-12-29T19:55:11.115Z,99383.17
2017-12-29T19:57:46.512Z,99383.19
2017-12-29T20:00:21.275Z,99384.77
2017-12-29T20:02:56.204Z,99395.86
2017-12-29T20:05:30.902Z,99395.54
2017-12-29T20:08:05.872Z,99380.44
2017-12-29T20:10:40.915Z,99397.28
2017-12-29T20:13:15.734Z,99382.19
2017-12-29T20:15:50.445Z,99401.12
2017-12-29T20:18:25.262Z,99403.27
2017-12-29T20:21:00.032Z,99403.89
2017-12-29T20:23:35.146Z,99400.09
2017-12-29T20:26:10.122Z,99403.05
2017-12-29T20:28:44.826Z,99399.69
2017-12-29T20:31:20.089Z,99403.89
2017-12-29T20:33:54.898Z,99393.17
2017-12-29T20:36:29.867Z,99404.23
2017-12-29T20:39:04.472Z,99409.41
2017-12-29T20:41:39.691Z,99401.58
2017-12-29T20:44:15.015Z,99397.52
2017-12-29T20:46:50.106Z,99400.42
2017-12-29T20:49:24.719Z,99409.69
2017-12-29T20:51:59.595Z,99400.61
2017-12-29T20:54:34.623Z,99403.47
2017-12-29T20:57:09.215Z,99406.23
2017-12-29T20:59:44.531Z,99403.97
2017-12-29T21:02:19.475Z,99394.66
2017-12-29T21:04:54.502Z,99390.34
2017-12-29T21:07:29.135Z,99394.33
2017-12-29T21:10:04.260Z,99395.45
2017-12-29T21:12:39.223Z,99399.97
2017-12-29T21:15:14.111Z,99398.06
2017-12-29T21:17:48.679Z,99400.63
2017-12-29T21:20:23.661Z,99396.77
2017-12-29T21:22:58.387Z,99394.67
2017-12-29T21:25:33.115Z,99393.55
2017-12-29T21:28:07.846Z,99392.23
2017-12-29T21:30:42.700Z,99396.58
2017-12-29T21:33:17.721Z,99403.43
2017-12-29T21:35:52.661Z,99412.41
2017-12-29T21:38:27.623Z,99422.73
2017-12-29T21:41:02.926Z,99422.74
2017-12-29T21:43:37.786Z,99428.03
2017-12-29T21:46:12.396Z,99432.17
2017-12-29T21:48:47.415Z,99436.92
2017-12-29T21:51:22.280Z,99439.20
2017-12-29T21:53:57.498Z,99442.51
2017-12-29T21:56:32.486Z,99440.92
2017-12-29T21:59:07.544Z,99444.48
2017-12-29T22:01:42.629Z,99448.85
2017-12-29T22:04:17.595Z,99449.55
2017-12-29T22:06:51.976Z,99465.45
2017-12-29T22:09:26.902Z,99464.12
2017-12-29T22:12:02.171Z,99461.27
2017-12-29T22:14:37.604Z,99455.06
2017-12-29T22:17:12.371Z,99448.21
2017-12-29T22:19:47.381Z,99463.86
2017-12-29T22:22:22.300Z,99461.90
2017-12-29T22:24:57.544Z,99460.25
2017-12-29T22:27:32.654Z,99459.50
2017-12-29T22:30:07.874Z,99469.44
2017-12-29T22:32:42.939Z,99476.09
2017-12-29T22:35:17.591Z,99468.61
2017-12-29T22:37:52.502Z,99468.37
2017-12-29T22:40:27.224Z,99457.94
2017-12-29T22:43:02.112Z,99455.66
2017-12-29T22:45:37.130Z,99478.70
2017-12-29T22:48:11.941Z,99482.37
2017-12-29T22:50:46.558Z,99485.22
2017-12-29T22:53:21.478Z,99482.45
2017-12-29T22:55:56.368Z,99490.63
2017-12-29T22:58:31.254Z,99498.61
2017-12-29T23:01:06.173Z,99492.86
2017-12-29T23:03:41.347Z,99494.05
2017-12-29T23:06:16.681Z,99497.72
2017-12-29T23:08:51.901Z,99502.84
2017-12-29T23:11:26.837Z,99504.11
2017-12-29T23:14:01.874Z,99500.89
2017-12-29T23:16:36.546Z,99514.58
2017-12-29T23:19:11.639Z,99503.09
2017-12-29T23:21:46.720Z,99504.63
2017-12-29T23:24:21.320Z,99505.52
2017-12-29T23:26:56.439Z,99518.48
2017-12-29T23:29:30.955Z,99512.66
2017-12-29T23:32:06.015Z,99517.16
2017-12-29T23:34:41.331Z,99517.08
2017-12-29T23:37:16.071Z,99520.84
2017-12-29T23:39:50.935Z,99521.48
2017-12-29T23:42:25.488Z,99522.67
2017-12-29T23:45:00.455Z,99518.80
2017-12-29T23:47:35.479Z,99521.81
2017-12-29T23:50:10.351Z,99524.22
2017-12-29T23:52:45.315Z,99513.05
2017-12-29T23:55:20.226Z,99514.44
2017-12-29T23:57:54.964Z,99510.45
